sensor_id;sensor_type;location;lat;lon;timestamp;P1;durP1;ratioP1;P2;durP2;ratioP2
41719;SDS011;27405;53.316;-6.294;2023-09-07T00:01:46;4.95;;;1.75;;
41719;SDS011;27405;53.316;-6.294;2023-09-07T00:04:12;6.95;;;1.98;;
41719;SDS011;27405;53.316;-6.294;2023-09-07T00:06:39;5.97;;;1.83;;
41719;SDS011;27405;53.316;-6.294;2023-09-07T00:09:08;6.60;;;1.85;;
41719;SDS011;27405;53.316;-6.294;2023-09-07T00:11:36;6.20;;;1.80;;
41719;SDS011;27405;53.316;-6.294;2023-09-07T00:14:02;9.65;;;2.00;;
41719;SDS011;27405;53.316;-6.294;2023-09-07T00:16:30;9.20;;;2.30;;
41719;SDS011;27405;53.316;-6.294;2023-09-07T00:18:59;7.00;;;2.03;;
41719;SDS011;27405;53.316;-6.294;2023-09-07T00:21:24;6.55;;;2.00;;
41719;SDS011;27405;53.316;-6.294;2023-09-07T00:23:50;5.88;;;1.85;;
41719;SDS011;27405;53.316;-6.294;2023-09-07T00:26:16;8.65;;;1.95;;
41719;SDS011;27405;53.316;-6.294;2023-09-07T00:28:41;4.88;;;1.70;;
41719;SDS011;27405;53.316;-6.294;2023-09-07T00:31:07;6.60;;;1.80;;
41719;SDS011;27405;53.316;-6.294;2023-09-07T00:33:33;5.75;;;2.00;;
41719;SDS011;27405;53.316;-6.294;2023-09-07T00:36:00;7.50;;;2.10;;
41719;SDS011;27405;53.316;-6.294;2023-09-07T00:38:27;6.60;;;2.00;;
41719;SDS011;27405;53.316;-6.294;2023-09-07T00:40:52;6.95;;;1.83;;
41719;SDS011;27405;53.316;-6.294;2023-09-07T00:43:18;6.88;;;1.92;;
41719;SDS011;27405;53.316;-6.294;2023-09-07T00:45:44;6.60;;;1.73;;
41719;SDS011;27405;53.316;-6.294;2023-09-07T00:48:11;9.55;;;2.08;;
41719;SDS011;27405;53.316;-6.294;2023-09-07T00:50:38;4.72;;;1.95;;
41719;SDS011;27405;53.316;-6.294;2023-09-07T00:53:04;6.72;;;1.90;;
41719;SDS011;27405;53.316;-6.294;2023-09-07T00:55:32;5.13;;;1.77;;
41719;SDS011;27405;53.316;-6.294;2023-09-07T00:58:00;8.27;;;2.28;;
41719;SDS011;27405;53.316;-6.294;2023-09-07T01:00:28;5.93;;;1.85;;
41719;SDS011;27405;53.316;-6.294;2023-09-07T01:02:54;7.30;;;1.80;;
41719;SDS011;27405;53.316;-6.294;2023-09-07T01:05:32;7.78;;;1.80;;
41719;SDS011;27405;53.316;-6.294;2023-09-07T01:08:16;6.93;;;2.10;;
41719;SDS011;27405;53.316;-6.294;2023-09-07T01:10:51;5.95;;;2.03;;
41719;SDS011;27405;53.316;-6.294;2023-09-07T01:13:18;5.15;;;1.77;;
41719;SDS011;27405;53.316;-6.294;2023-09-07T01:15:45;7.40;;;2.40;;
41719;SDS011;27405;53.316;-6.294;2023-09-07T01:18:11;5.70;;;1.80;;
41719;SDS011;27405;53.316;-6.294;2023-09-07T01:20:38;3.78;;;1.70;;
41719;SDS011;27405;53.316;-6.294;2023-09-07T01:23:06;7.40;;;1.98;;
41719;SDS011;27405;53.316;-6.294;2023-09-07T01:25:32;5.18;;;1.83;;
41719;SDS011;27405;53.316;-6.294;2023-09-07T01:27:59;5.35;;;1.88;;
41719;SDS011;27405;53.316;-6.294;2023-09-07T01:30:27;7.72;;;1.90;;
41719;SDS011;27405;53.316;-6.294;2023-09-07T01:32:53;6.47;;;1.73;;
41719;SDS011;27405;53.316;-6.294;2023-09-07T01:35:19;6.60;;;1.88;;
41719;SDS011;27405;53.316;-6.294;2023-09-07T01:37:47;5.88;;;1.90;;
41719;SDS011;27405;53.316;-6.294;2023-09-07T01:40:13;6.97;;;2.00;;
41719;SDS011;27405;53.316;-6.294;2023-09-07T01:42:38;11.30;;;2.30;;
41719;SDS011;27405;53.316;-6.294;2023-09-07T01:45:04;6.38;;;2.45;;
41719;SDS011;27405;53.316;-6.294;2023-09-07T01:47:30;9.35;;;2.50;;
41719;SDS011;27405;53.316;-6.294;2023-09-07T01:49:56;7.43;;;2.20;;
41719;SDS011;27405;53.316;-6.294;2023-09-07T01:52:22;8.20;;;2.47;;
41719;SDS011;27405;53.316;-6.294;2023-09-07T01:54:48;5.03;;;2.17;;
41719;SDS011;27405;53.316;-6.294;2023-09-07T01:57:13;7.40;;;2.60;;
41719;SDS011;27405;53.316;-6.294;2023-09-07T01:59:39;8.25;;;2.47;;
41719;SDS011;27405;53.316;-6.294;2023-09-07T02:02:05;9.70;;;2.58;;
41719;SDS011;27405;53.316;-6.294;2023-09-07T02:04:30;7.93;;;2.80;;
41719;SDS011;27405;53.316;-6.294;2023-09-07T02:06:56;13.57;;;2.95;;
41719;SDS011;27405;53.316;-6.294;2023-09-07T02:09:22;8.77;;;2.60;;
41719;SDS011;27405;53.316;-6.294;2023-09-07T02:11:47;8.35;;;2.80;;
41719;SDS011;27405;53.316;-6.294;2023-09-07T02:14:13;9.77;;;2.70;;
41719;SDS011;27405;53.316;-6.294;2023-09-07T02:16:39;9.95;;;2.72;;
41719;SDS011;27405;53.316;-6.294;2023-09-07T02:19:05;10.13;;;2.92;;
41719;SDS011;27405;53.316;-6.294;2023-09-07T02:21:31;7.72;;;3.08;;
41719;SDS011;27405;53.316;-6.294;2023-09-07T02:23:58;8.95;;;2.88;;
41719;SDS011;27405;53.316;-6.294;2023-09-07T02:26:24;7.45;;;2.72;;
41719;SDS011;27405;53.316;-6.294;2023-09-07T02:28:49;9.48;;;2.90;;
41719;SDS011;27405;53.316;-6.294;2023-09-07T02:31:15;10.15;;;2.90;;
41719;SDS011;27405;53.316;-6.294;2023-09-07T02:33:41;8.93;;;2.83;;
41719;SDS011;27405;53.316;-6.294;2023-09-07T02:36:06;9.52;;;3.05;;
41719;SDS011;27405;53.316;-6.294;2023-09-07T02:38:32;8.20;;;2.78;;
41719;SDS011;27405;53.316;-6.294;2023-09-07T02:40:58;9.25;;;2.90;;
41719;SDS011;27405;53.316;-6.294;2023-09-07T02:43:23;9.27;;;3.50;;
41719;SDS011;27405;53.316;-6.294;2023-09-07T02:45:49;9.73;;;3.20;;
41719;SDS011;27405;53.316;-6.294;2023-09-07T02:48:15;10.65;;;3.22;;
41719;SDS011;27405;53.316;-6.294;2023-09-07T02:50:41;12.27;;;3.85;;
41719;SDS011;27405;53.316;-6.294;2023-09-07T02:53:07;9.20;;;3.42;;
41719;SDS011;27405;53.316;-6.294;2023-09-07T02:55:33;10.85;;;3.58;;
41719;SDS011;27405;53.316;-6.294;2023-09-07T02:58:02;9.02;;;3.45;;
41719;SDS011;27405;53.316;-6.294;2023-09-07T03:00:28;9.88;;;3.45;;
41719;SDS011;27405;53.316;-6.294;2023-09-07T03:02:54;13.27;;;4.25;;
41719;SDS011;27405;53.316;-6.294;2023-09-07T03:05:19;12.00;;;3.25;;
41719;SDS011;27405;53.316;-6.294;2023-09-07T03:07:45;9.70;;;3.45;;
41719;SDS011;27405;53.316;-6.294;2023-09-07T03:10:12;10.52;;;3.83;;
41719;SDS011;27405;53.316;-6.294;2023-09-07T03:12:38;12.93;;;3.90;;
41719;SDS011;27405;53.316;-6.294;2023-09-07T03:15:04;14.88;;;4.13;;
41719;SDS011;27405;53.316;-6.294;2023-09-07T03:17:30;11.25;;;3.80;;
41719;SDS011;27405;53.316;-6.294;2023-09-07T03:19:57;11.60;;;3.78;;
41719;SDS011;27405;53.316;-6.294;2023-09-07T03:22:23;12.20;;;3.83;;
41719;SDS011;27405;53.316;-6.294;2023-09-07T03:24:50;10.40;;;3.35;;
41719;SDS011;27405;53.316;-6.294;2023-09-07T03:27:16;15.07;;;3.55;;
41719;SDS011;27405;53.316;-6.294;2023-09-07T03:29:43;13.85;;;3.30;;
41719;SDS011;27405;53.316;-6.294;2023-09-07T03:32:09;10.90;;;3.30;;
41719;SDS011;27405;53.316;-6.294;2023-09-07T03:34:35;11.48;;;3.65;;
41719;SDS011;27405;53.316;-6.294;2023-09-07T03:37:01;9.95;;;3.40;;
41719;SDS011;27405;53.316;-6.294;2023-09-07T03:39:27;10.18;;;3.22;;
41719;SDS011;27405;53.316;-6.294;2023-09-07T03:41:53;8.93;;;3.00;;
41719;SDS011;27405;53.316;-6.294;2023-09-07T03:44:19;10.45;;;3.28;;
41719;SDS011;27405;53.316;-6.294;2023-09-07T03:46:45;11.85;;;3.38;;
41719;SDS011;27405;53.316;-6.294;2023-09-07T03:49:10;11.57;;;3.90;;
41719;SDS011;27405;53.316;-6.294;2023-09-07T03:51:36;12.68;;;3.95;;
41719;SDS011;27405;53.316;-6.294;2023-09-07T03:54:02;14.45;;;4.28;;
41719;SDS011;27405;53.316;-6.294;2023-09-07T03:56:28;12.10;;;3.78;;
41719;SDS011;27405;53.316;-6.294;2023-09-07T03:58:54;11.48;;;4.03;;
41719;SDS011;27405;53.316;-6.294;2023-09-07T04:01:20;11.70;;;4.07;;
41719;SDS011;27405;53.316;-6.294;2023-09-07T04:03:45;9.15;;;3.70;;
41719;SDS011;27405;53.316;-6.294;2023-09-07T04:06:11;13.10;;;3.80;;
41719;SDS011;27405;53.316;-6.294;2023-09-07T04:08:37;14.50;;;4.55;;
41719;SDS011;27405;53.316;-6.294;2023-09-07T04:11:03;19.27;;;4.57;;
41719;SDS011;27405;53.316;-6.294;2023-09-07T04:13:30;18.90;;;5.00;;
41719;SDS011;27405;53.316;-6.294;2023-09-07T04:15:56;15.52;;;4.75;;
41719;SDS011;27405;53.316;-6.294;2023-09-07T04:18:22;15.90;;;4.82;;
41719;SDS011;27405;53.316;-6.294;2023-09-07T04:20:49;15.65;;;5.20;;
41719;SDS011;27405;53.316;-6.294;2023-09-07T04:23:15;13.63;;;5.00;;
41719;SDS011;27405;53.316;-6.294;2023-09-07T04:25:40;18.45;;;6.07;;
41719;SDS011;27405;53.316;-6.294;2023-09-07T04:28:06;19.08;;;6.40;;
41719;SDS011;27405;53.316;-6.294;2023-09-07T04:30:33;18.00;;;6.32;;
41719;SDS011;27405;53.316;-6.294;2023-09-07T04:33:04;20.13;;;6.72;;
41719;SDS011;27405;53.316;-6.294;2023-09-07T04:35:30;14.05;;;6.60;;
41719;SDS011;27405;53.316;-6.294;2023-09-07T04:37:57;21.55;;;7.20;;
41719;SDS011;27405;53.316;-6.294;2023-09-07T04:40:24;16.85;;;7.10;;
41719;SDS011;27405;53.316;-6.294;2023-09-07T04:42:50;17.63;;;7.43;;
41719;SDS011;27405;53.316;-6.294;2023-09-07T04:45:15;20.48;;;6.82;;
41719;SDS011;27405;53.316;-6.294;2023-09-07T04:47:42;20.35;;;7.47;;
41719;SDS011;27405;53.316;-6.294;2023-09-07T04:50:08;18.20;;;6.70;;
41719;SDS011;27405;53.316;-6.294;2023-09-07T04:52:34;21.33;;;7.93;;
41719;SDS011;27405;53.316;-6.294;2023-09-07T04:55:00;21.52;;;8.35;;
41719;SDS011;27405;53.316;-6.294;2023-09-07T04:57:26;22.90;;;8.27;;
41719;SDS011;27405;53.316;-6.294;2023-09-07T04:59:52;22.85;;;9.10;;
41719;SDS011;27405;53.316;-6.294;2023-09-07T05:02:18;19.38;;;8.95;;
41719;SDS011;27405;53.316;-6.294;2023-09-07T05:04:44;26.50;;;9.07;;
41719;SDS011;27405;53.316;-6.294;2023-09-07T05:07:10;18.88;;;8.88;;
41719;SDS011;27405;53.316;-6.294;2023-09-07T05:09:36;22.83;;;8.63;;
41719;SDS011;27405;53.316;-6.294;2023-09-07T05:12:01;22.33;;;9.48;;
41719;SDS011;27405;53.316;-6.294;2023-09-07T05:14:27;23.92;;;10.65;;
41719;SDS011;27405;53.316;-6.294;2023-09-07T05:16:54;23.45;;;11.20;;
41719;SDS011;27405;53.316;-6.294;2023-09-07T05:19:21;25.98;;;10.35;;
41719;SDS011;27405;53.316;-6.294;2023-09-07T05:21:47;27.67;;;11.50;;
41719;SDS011;27405;53.316;-6.294;2023-09-07T05:24:13;30.40;;;12.65;;
41719;SDS011;27405;53.316;-6.294;2023-09-07T05:26:42;24.05;;;11.50;;
41719;SDS011;27405;53.316;-6.294;2023-09-07T05:29:08;26.83;;;12.43;;
41719;SDS011;27405;53.316;-6.294;2023-09-07T05:31:34;28.38;;;12.90;;
41719;SDS011;27405;53.316;-6.294;2023-09-07T05:34:00;32.83;;;13.63;;
41719;SDS011;27405;53.316;-6.294;2023-09-07T05:36:26;26.50;;;12.50;;
41719;SDS011;27405;53.316;-6.294;2023-09-07T05:38:52;29.48;;;12.35;;
41719;SDS011;27405;53.316;-6.294;2023-09-07T05:41:18;27.58;;;14.10;;
41719;SDS011;27405;53.316;-6.294;2023-09-07T05:43:44;25.50;;;13.10;;
41719;SDS011;27405;53.316;-6.294;2023-09-07T05:46:10;27.85;;;12.85;;
41719;SDS011;27405;53.316;-6.294;2023-09-07T05:48:36;28.23;;;13.38;;
41719;SDS011;27405;53.316;-6.294;2023-09-07T05:51:01;30.00;;;14.52;;
41719;SDS011;27405;53.316;-6.294;2023-09-07T05:53:27;25.35;;;12.10;;
41719;SDS011;27405;53.316;-6.294;2023-09-07T05:55:53;28.13;;;13.45;;
41719;SDS011;27405;53.316;-6.294;2023-09-07T05:58:19;29.02;;;14.48;;
41719;SDS011;27405;53.316;-6.294;2023-09-07T06:00:45;32.95;;;15.13;;
41719;SDS011;27405;53.316;-6.294;2023-09-07T06:03:11;25.92;;;13.70;;
41719;SDS011;27405;53.316;-6.294;2023-09-07T06:05:37;27.20;;;15.20;;
41719;SDS011;27405;53.316;-6.294;2023-09-07T06:08:03;30.60;;;16.63;;
41719;SDS011;27405;53.316;-6.294;2023-09-07T06:10:31;31.52;;;16.52;;
41719;SDS011;27405;53.316;-6.294;2023-09-07T06:12:57;32.08;;;17.45;;
41719;SDS011;27405;53.316;-6.294;2023-09-07T06:15:23;32.42;;;16.85;;
41719;SDS011;27405;53.316;-6.294;2023-09-07T06:17:49;33.90;;;18.05;;
41719;SDS011;27405;53.316;-6.294;2023-09-07T06:20:15;33.75;;;17.83;;
41719;SDS011;27405;53.316;-6.294;2023-09-07T06:22:41;33.05;;;17.05;;
41719;SDS011;27405;53.316;-6.294;2023-09-07T06:25:07;31.65;;;17.65;;
41719;SDS011;27405;53.316;-6.294;2023-09-07T06:27:33;31.33;;;17.23;;
41719;SDS011;27405;53.316;-6.294;2023-09-07T06:29:58;33.97;;;18.48;;
41719;SDS011;27405;53.316;-6.294;2023-09-07T06:32:24;35.03;;;17.63;;
41719;SDS011;27405;53.316;-6.294;2023-09-07T06:34:50;35.33;;;17.75;;
41719;SDS011;27405;53.316;-6.294;2023-09-07T06:37:16;33.13;;;15.73;;
41719;SDS011;27405;53.316;-6.294;2023-09-07T06:39:42;37.47;;;18.42;;
41719;SDS011;27405;53.316;-6.294;2023-09-07T06:42:08;31.95;;;17.90;;
41719;SDS011;27405;53.316;-6.294;2023-09-07T06:44:35;34.35;;;16.58;;
41719;SDS011;27405;53.316;-6.294;2023-09-07T06:47:01;31.02;;;16.70;;
41719;SDS011;27405;53.316;-6.294;2023-09-07T06:49:27;34.03;;;18.85;;
41719;SDS011;27405;53.316;-6.294;2023-09-07T06:51:54;38.95;;;18.20;;
41719;SDS011;27405;53.316;-6.294;2023-09-07T06:54:21;31.00;;;15.77;;
41719;SDS011;27405;53.316;-6.294;2023-09-07T06:56:47;35.33;;;16.48;;
41719;SDS011;27405;53.316;-6.294;2023-09-07T06:59:13;30.42;;;16.88;;
41719;SDS011;27405;53.316;-6.294;2023-09-07T07:01:39;29.65;;;15.43;;
41719;SDS011;27405;53.316;-6.294;2023-09-07T07:04:04;31.02;;;15.93;;
41719;SDS011;27405;53.316;-6.294;2023-09-07T07:06:30;26.77;;;15.73;;
41719;SDS011;27405;53.316;-6.294;2023-09-07T07:08:56;31.35;;;15.27;;
41719;SDS011;27405;53.316;-6.294;2023-09-07T07:11:21;29.40;;;15.10;;
41719;SDS011;27405;53.316;-6.294;2023-09-07T07:13:47;34.63;;;15.02;;
41719;SDS011;27405;53.316;-6.294;2023-09-07T07:16:13;32.50;;;15.00;;
41719;SDS011;27405;53.316;-6.294;2023-09-07T07:18:39;31.00;;;14.48;;
41719;SDS011;27405;53.316;-6.294;2023-09-07T07:21:04;29.73;;;14.52;;
41719;SDS011;27405;53.316;-6.294;2023-09-07T07:23:30;29.63;;;14.65;;
41719;SDS011;27405;53.316;-6.294;2023-09-07T07:25:57;27.92;;;13.38;;
41719;SDS011;27405;53.316;-6.294;2023-09-07T07:28:22;27.08;;;12.55;;
41719;SDS011;27405;53.316;-6.294;2023-09-07T07:30:48;30.02;;;12.32;;
41719;SDS011;27405;53.316;-6.294;2023-09-07T07:33:14;27.55;;;12.43;;
41719;SDS011;27405;53.316;-6.294;2023-09-07T07:35:40;28.23;;;13.90;;
41719;SDS011;27405;53.316;-6.294;2023-09-07T07:38:05;28.38;;;13.52;;
41719;SDS011;27405;53.316;-6.294;2023-09-07T07:40:33;30.92;;;13.32;;
41719;SDS011;27405;53.316;-6.294;2023-09-07T07:42:59;33.00;;;12.70;;
41719;SDS011;27405;53.316;-6.294;2023-09-07T07:45:24;28.17;;;12.70;;
41719;SDS011;27405;53.316;-6.294;2023-09-07T07:47:53;28.65;;;13.05;;
41719;SDS011;27405;53.316;-6.294;2023-09-07T07:50:19;27.90;;;13.65;;
41719;SDS011;27405;53.316;-6.294;2023-09-07T07:52:44;28.63;;;12.68;;
41719;SDS011;27405;53.316;-6.294;2023-09-07T07:55:11;29.77;;;12.70;;
41719;SDS011;27405;53.316;-6.294;2023-09-07T07:57:37;29.80;;;12.23;;
41719;SDS011;27405;53.316;-6.294;2023-09-07T08:00:03;24.13;;;11.90;;
41719;SDS011;27405;53.316;-6.294;2023-09-07T08:02:30;25.58;;;12.30;;
41719;SDS011;27405;53.316;-6.294;2023-09-07T08:04:57;27.73;;;11.82;;
41719;SDS011;27405;53.316;-6.294;2023-09-07T08:07:24;30.58;;;11.90;;
41719;SDS011;27405;53.316;-6.294;2023-09-07T08:09:50;25.45;;;11.27;;
41719;SDS011;27405;53.316;-6.294;2023-09-07T08:12:16;23.75;;;10.73;;
41719;SDS011;27405;53.316;-6.294;2023-09-07T08:14:42;27.38;;;11.13;;
41719;SDS011;27405;53.316;-6.294;2023-09-07T08:17:08;25.65;;;10.60;;
41719;SDS011;27405;53.316;-6.294;2023-09-07T08:19:34;26.15;;;10.30;;
41719;SDS011;27405;53.316;-6.294;2023-09-07T08:21:59;32.70;;;11.02;;
41719;SDS011;27405;53.316;-6.294;2023-09-07T08:24:28;23.63;;;10.00;;
41719;SDS011;27405;53.316;-6.294;2023-09-07T08:26:54;28.80;;;9.18;;
41719;SDS011;27405;53.316;-6.294;2023-09-07T08:29:21;27.95;;;9.43;;
41719;SDS011;27405;53.316;-6.294;2023-09-07T08:31:50;26.42;;;8.80;;
41719;SDS011;27405;53.316;-6.294;2023-09-07T08:34:15;22.38;;;9.02;;
41719;SDS011;27405;53.316;-6.294;2023-09-07T08:36:41;23.05;;;9.30;;
41719;SDS011;27405;53.316;-6.294;2023-09-07T08:39:07;22.73;;;8.95;;
41719;SDS011;27405;53.316;-6.294;2023-09-07T08:41:37;26.15;;;9.07;;
41719;SDS011;27405;53.316;-6.294;2023-09-07T08:44:12;24.98;;;9.13;;
41719;SDS011;27405;53.316;-6.294;2023-09-07T08:46:41;27.52;;;8.23;;
41719;SDS011;27405;53.316;-6.294;2023-09-07T08:49:08;23.00;;;8.93;;
41719;SDS011;27405;53.316;-6.294;2023-09-07T08:51:36;25.17;;;9.03;;
41719;SDS011;27405;53.316;-6.294;2023-09-07T08:54:07;28.20;;;9.02;;
41719;SDS011;27405;53.316;-6.294;2023-09-07T08:56:33;23.77;;;8.50;;
41719;SDS011;27405;53.316;-6.294;2023-09-07T08:58:59;28.27;;;8.82;;
41719;SDS011;27405;53.316;-6.294;2023-09-07T09:01:24;22.08;;;7.93;;
41719;SDS011;27405;53.316;-6.294;2023-09-07T09:03:50;28.95;;;8.55;;
41719;SDS011;27405;53.316;-6.294;2023-09-07T09:06:18;28.02;;;8.35;;
41719;SDS011;27405;53.316;-6.294;2023-09-07T09:08:46;24.88;;;8.93;;
41719;SDS011;27405;53.316;-6.294;2023-09-07T09:11:20;24.52;;;8.23;;
41719;SDS011;27405;53.316;-6.294;2023-09-07T09:13:47;25.25;;;8.70;;
41719;SDS011;27405;53.316;-6.294;2023-09-07T09:16:14;21.05;;;7.95;;
41719;SDS011;27405;53.316;-6.294;2023-09-07T09:18:50;23.17;;;8.68;;
41719;SDS011;27405;53.316;-6.294;2023-09-07T09:21:18;20.85;;;8.07;;
41719;SDS011;27405;53.316;-6.294;2023-09-07T09:23:52;25.63;;;7.93;;
41719;SDS011;27405;53.316;-6.294;2023-09-07T09:26:20;27.08;;;8.93;;
41719;SDS011;27405;53.316;-6.294;2023-09-07T09:28:46;22.50;;;7.85;;
41719;SDS011;27405;53.316;-6.294;2023-09-07T09:31:12;27.90;;;8.30;;
41719;SDS011;27405;53.316;-6.294;2023-09-07T09:33:39;27.13;;;8.27;;
41719;SDS011;27405;53.316;-6.294;2023-09-07T09:36:06;23.67;;;8.10;;
41719;SDS011;27405;53.316;-6.294;2023-09-07T09:38:33;30.25;;;8.05;;
41719;SDS011;27405;53.316;-6.294;2023-09-07T09:40:59;22.85;;;7.80;;
41719;SDS011;27405;53.316;-6.294;2023-09-07T09:43:25;22.92;;;8.45;;
41719;SDS011;27405;53.316;-6.294;2023-09-07T09:45:52;22.88;;;7.53;;
41719;SDS011;27405;53.316;-6.294;2023-09-07T09:48:21;23.38;;;7.72;;
41719;SDS011;27405;53.316;-6.294;2023-09-07T09:50:47;22.98;;;8.68;;
41719;SDS011;27405;53.316;-6.294;2023-09-07T09:53:17;23.73;;;8.07;;
41719;SDS011;27405;53.316;-6.294;2023-09-07T09:55:48;23.58;;;8.10;;
41719;SDS011;27405;53.316;-6.294;2023-09-07T09:58:14;25.17;;;8.20;;
41719;SDS011;27405;53.316;-6.294;2023-09-07T10:00:42;23.58;;;8.18;;
41719;SDS011;27405;53.316;-6.294;2023-09-07T10:03:10;27.67;;;8.05;;
41719;SDS011;27405;53.316;-6.294;2023-09-07T10:05:43;24.33;;;7.57;;
41719;SDS011;27405;53.316;-6.294;2023-09-07T10:08:12;25.50;;;8.30;;
41719;SDS011;27405;53.316;-6.294;2023-09-07T10:10:38;23.15;;;8.10;;
41719;SDS011;27405;53.316;-6.294;2023-09-07T10:15:33;20.77;;;7.15;;
41719;SDS011;27405;53.316;-6.294;2023-09-07T10:20:49;25.80;;;8.68;;
41719;SDS011;27405;53.316;-6.294;2023-09-07T10:23:15;20.45;;;7.85;;
41719;SDS011;27405;53.316;-6.294;2023-09-07T10:25:41;20.45;;;7.70;;
41719;SDS011;27405;53.316;-6.294;2023-09-07T10:28:17;24.45;;;7.80;;
41719;SDS011;27405;53.316;-6.294;2023-09-07T10:30:44;19.17;;;6.65;;
41719;SDS011;27405;53.316;-6.294;2023-09-07T10:33:20;24.30;;;7.47;;
41719;SDS011;27405;53.316;-6.294;2023-09-07T10:35:46;25.40;;;7.78;;
41719;SDS011;27405;53.316;-6.294;2023-09-07T10:38:15;20.55;;;7.78;;
41719;SDS011;27405;53.316;-6.294;2023-09-07T10:40:44;20.00;;;7.75;;
41719;SDS011;27405;53.316;-6.294;2023-09-07T10:43:10;20.00;;;7.15;;
41719;SDS011;27405;53.316;-6.294;2023-09-07T10:45:36;20.23;;;7.80;;
41719;SDS011;27405;53.316;-6.294;2023-09-07T10:48:02;21.15;;;7.60;;
41719;SDS011;27405;53.316;-6.294;2023-09-07T10:50:41;22.90;;;7.72;;
41719;SDS011;27405;53.316;-6.294;2023-09-07T10:53:07;19.92;;;7.15;;
41719;SDS011;27405;53.316;-6.294;2023-09-07T10:55:36;25.85;;;8.13;;
41719;SDS011;27405;53.316;-6.294;2023-09-07T10:58:06;25.20;;;7.95;;
41719;SDS011;27405;53.316;-6.294;2023-09-07T11:00:34;20.90;;;7.57;;
41719;SDS011;27405;53.316;-6.294;2023-09-07T11:03:06;22.08;;;8.43;;
41719;SDS011;27405;53.316;-6.294;2023-09-07T11:05:35;19.10;;;8.02;;
41719;SDS011;27405;53.316;-6.294;2023-09-07T11:08:03;24.80;;;7.85;;
41719;SDS011;27405;53.316;-6.294;2023-09-07T11:10:34;24.38;;;8.13;;
41719;SDS011;27405;53.316;-6.294;2023-09-07T11:13:03;23.73;;;7.78;;
41719;SDS011;27405;53.316;-6.294;2023-09-07T11:15:30;23.13;;;7.40;;
41719;SDS011;27405;53.316;-6.294;2023-09-07T11:17:57;21.48;;;7.78;;
41719;SDS011;27405;53.316;-6.294;2023-09-07T11:20:23;20.70;;;7.88;;
41719;SDS011;27405;53.316;-6.294;2023-09-07T11:22:49;25.17;;;8.25;;
41719;SDS011;27405;53.316;-6.294;2023-09-07T11:25:15;26.13;;;9.20;;
41719;SDS011;27405;53.316;-6.294;2023-09-07T11:27:41;20.30;;;7.43;;
41719;SDS011;27405;53.316;-6.294;2023-09-07T11:30:10;21.15;;;7.75;;
41719;SDS011;27405;53.316;-6.294;2023-09-07T11:32:36;19.48;;;7.93;;
41719;SDS011;27405;53.316;-6.294;2023-09-07T11:35:02;20.45;;;7.63;;
41719;SDS011;27405;53.316;-6.294;2023-09-07T11:37:32;22.85;;;8.13;;
41719;SDS011;27405;53.316;-6.294;2023-09-07T11:39:58;23.45;;;7.68;;
41719;SDS011;27405;53.316;-6.294;2023-09-07T11:42:24;22.92;;;8.05;;
41719;SDS011;27405;53.316;-6.294;2023-09-07T11:44:50;20.45;;;7.60;;
41719;SDS011;27405;53.316;-6.294;2023-09-07T11:47:15;23.90;;;7.13;;
41719;SDS011;27405;53.316;-6.294;2023-09-07T11:49:41;18.48;;;8.05;;
41719;SDS011;27405;53.316;-6.294;2023-09-07T11:52:07;22.25;;;7.40;;
41719;SDS011;27405;53.316;-6.294;2023-09-07T11:54:33;19.23;;;7.22;;
41719;SDS011;27405;53.316;-6.294;2023-09-07T11:56:58;21.15;;;7.45;;
41719;SDS011;27405;53.316;-6.294;2023-09-07T11:59:24;19.58;;;6.70;;
41719;SDS011;27405;53.316;-6.294;2023-09-07T12:01:50;23.40;;;7.25;;
41719;SDS011;27405;53.316;-6.294;2023-09-07T12:04:16;20.85;;;7.70;;
41719;SDS011;27405;53.316;-6.294;2023-09-07T12:06:41;24.10;;;7.63;;
41719;SDS011;27405;53.316;-6.294;2023-09-07T12:09:07;24.80;;;8.60;;
41719;SDS011;27405;53.316;-6.294;2023-09-07T12:11:34;23.50;;;8.25;;
41719;SDS011;27405;53.316;-6.294;2023-09-07T12:14:00;20.98;;;8.07;;
41719;SDS011;27405;53.316;-6.294;2023-09-07T12:16:27;29.30;;;8.63;;
41719;SDS011;27405;53.316;-6.294;2023-09-07T12:18:53;21.75;;;8.32;;
41719;SDS011;27405;53.316;-6.294;2023-09-07T12:21:19;24.25;;;8.18;;
41719;SDS011;27405;53.316;-6.294;2023-09-07T12:23:45;19.90;;;8.18;;
41719;SDS011;27405;53.316;-6.294;2023-09-07T12:26:12;24.15;;;8.48;;
41719;SDS011;27405;53.316;-6.294;2023-09-07T12:28:38;24.77;;;8.43;;
41719;SDS011;27405;53.316;-6.294;2023-09-07T12:31:03;23.30;;;7.97;;
41719;SDS011;27405;53.316;-6.294;2023-09-07T12:33:30;20.00;;;7.95;;
41719;SDS011;27405;53.316;-6.294;2023-09-07T12:35:55;22.90;;;8.45;;
41719;SDS011;27405;53.316;-6.294;2023-09-07T12:38:21;21.25;;;8.13;;
41719;SDS011;27405;53.316;-6.294;2023-09-07T12:40:52;20.48;;;8.25;;
41719;SDS011;27405;53.316;-6.294;2023-09-07T12:43:18;24.40;;;8.05;;
41719;SDS011;27405;53.316;-6.294;2023-09-07T12:45:45;23.60;;;7.63;;
41719;SDS011;27405;53.316;-6.294;2023-09-07T12:48:11;20.77;;;8.20;;
41719;SDS011;27405;53.316;-6.294;2023-09-07T12:50:36;19.65;;;7.90;;
41719;SDS011;27405;53.316;-6.294;2023-09-07T12:53:02;23.58;;;7.90;;
41719;SDS011;27405;53.316;-6.294;2023-09-07T12:55:28;14.85;;;7.25;;
41719;SDS011;27405;53.316;-6.294;2023-09-07T12:57:55;21.40;;;7.68;;
41719;SDS011;27405;53.316;-6.294;2023-09-07T13:00:20;22.83;;;6.72;;
41719;SDS011;27405;53.316;-6.294;2023-09-07T13:02:46;18.67;;;7.18;;
41719;SDS011;27405;53.316;-6.294;2023-09-07T13:05:12;21.10;;;7.05;;
41719;SDS011;27405;53.316;-6.294;2023-09-07T13:07:38;19.63;;;7.35;;
41719;SDS011;27405;53.316;-6.294;2023-09-07T13:10:05;24.00;;;8.20;;
41719;SDS011;27405;53.316;-6.294;2023-09-07T13:12:31;21.45;;;7.60;;
41719;SDS011;27405;53.316;-6.294;2023-09-07T13:14:57;18.83;;;7.13;;
41719;SDS011;27405;53.316;-6.294;2023-09-07T13:17:23;20.27;;;7.07;;
41719;SDS011;27405;53.316;-6.294;2023-09-07T13:19:50;21.20;;;7.82;;
41719;SDS011;27405;53.316;-6.294;2023-09-07T13:22:16;19.50;;;7.47;;
41719;SDS011;27405;53.316;-6.294;2023-09-07T13:24:42;22.90;;;7.40;;
41719;SDS011;27405;53.316;-6.294;2023-09-07T13:27:08;23.17;;;7.68;;
41719;SDS011;27405;53.316;-6.294;2023-09-07T13:29:35;21.92;;;8.13;;
41719;SDS011;27405;53.316;-6.294;2023-09-07T13:32:01;19.83;;;8.60;;
41719;SDS011;27405;53.316;-6.294;2023-09-07T13:34:27;25.73;;;8.75;;
41719;SDS011;27405;53.316;-6.294;2023-09-07T13:36:53;24.02;;;8.68;;
41719;SDS011;27405;53.316;-6.294;2023-09-07T13:39:19;21.95;;;8.57;;
41719;SDS011;27405;53.316;-6.294;2023-09-07T13:41:44;22.02;;;8.30;;
41719;SDS011;27405;53.316;-6.294;2023-09-07T13:44:11;22.52;;;8.02;;
41719;SDS011;27405;53.316;-6.294;2023-09-07T13:46:38;24.25;;;7.85;;
41719;SDS011;27405;53.316;-6.294;2023-09-07T13:49:04;20.25;;;8.52;;
41719;SDS011;27405;53.316;-6.294;2023-09-07T13:51:29;21.27;;;8.25;;
41719;SDS011;27405;53.316;-6.294;2023-09-07T13:54:00;18.58;;;7.68;;
41719;SDS011;27405;53.316;-6.294;2023-09-07T13:56:26;25.75;;;8.68;;
41719;SDS011;27405;53.316;-6.294;2023-09-07T13:58:51;25.27;;;8.75;;
41719;SDS011;27405;53.316;-6.294;2023-09-07T14:01:17;18.67;;;8.07;;
41719;SDS011;27405;53.316;-6.294;2023-09-07T14:03:43;18.35;;;8.25;;
41719;SDS011;27405;53.316;-6.294;2023-09-07T14:06:09;24.70;;;8.18;;
41719;SDS011;27405;53.316;-6.294;2023-09-07T14:08:34;22.13;;;8.23;;
41719;SDS011;27405;53.316;-6.294;2023-09-07T14:11:00;24.08;;;7.88;;
41719;SDS011;27405;53.316;-6.294;2023-09-07T14:13:26;19.83;;;7.40;;
41719;SDS011;27405;53.316;-6.294;2023-09-07T14:15:52;22.88;;;7.80;;
41719;SDS011;27405;53.316;-6.294;2023-09-07T14:18:18;18.52;;;8.30;;
41719;SDS011;27405;53.316;-6.294;2023-09-07T14:20:43;20.02;;;8.40;;
41719;SDS011;27405;53.316;-6.294;2023-09-07T14:23:09;19.05;;;7.13;;